createdAt,value
2022-08-29T00:02:57.379Z,101856.31
2022-08-29T00:08:02.389Z,101848.66
2022-08-29T00:13:08.087Z,101790.31
2022-08-29T00:18:10.802Z,101847.00
2022-08-29T00:23:13.952Z,101840.38
2022-08-29T00:28:18.062Z,101839.13
2022-08-29T00:33:21.295Z,101829.50
2022-08-29T00:38:27.698Z,101841.38
2022-08-29T00:43:34.849Z,101844.38
2022-08-29T00:48:39.205Z,101802.34
2022-08-29T00:53:45.734Z,101836.03
2022-08-29T00:58:54.955Z,101853.47
2022-08-29T01:03:57.736Z,101847.59
2022-08-29T01:09:00.403Z,101815.56
2022-08-29T01:14:06.007Z,101848.38
2022-08-29T01:19:16.276Z,101796.50
2022-08-29T01:24:39.090Z,101852.91
2022-08-29T01:29:42.238Z,101866.75
2022-08-29T01:34:45.526Z,101858.59
2022-08-29T01:39:49.680Z,101834.50
2022-08-29T01:44:55.688Z,101860.72
2022-08-29T01:49:59.651Z,101871.25
2022-08-29T01:55:03.792Z,101868.06
2022-08-29T02:00:10.201Z,101873.00
2022-08-29T02:05:13.113Z,101871.47
2022-08-29T02:10:17.113Z,101836.97
2022-08-29T02:15:19.763Z,101873.16
2022-08-29T02:20:22.379Z,101853.25
2022-08-29T02:25:46.509Z,101877.38
2022-08-29T02:30:56.466Z,101833.06
2022-08-29T02:36:01.164Z,101854.28
2022-08-29T02:41:08.543Z,101882.50
2022-08-29T02:46:17.374Z,101833.78
2022-08-29T02:51:22.970Z,101831.38
2022-08-29T02:56:27.600Z,101879.13
2022-08-29T03:01:31.316Z,101879.31
2022-08-29T03:06:34.565Z,101878.84
2022-08-29T03:11:38.597Z,101883.00
2022-08-29T03:16:41.223Z,101830.84
2022-08-29T03:21:45.236Z,101871.19
2022-08-29T03:26:56.300Z,101851.38
2022-08-29T03:31:59.711Z,101825.84
2022-08-29T03:37:02.387Z,101858.75
2022-08-29T03:42:07.475Z,101803.31
2022-08-29T03:47:10.790Z,101812.41
2022-08-29T03:52:13.731Z,101790.44
2022-08-29T03:57:17.864Z,101834.03
2022-08-29T04:02:20.563Z,101856.91
2022-08-29T04:07:23.474Z,101775.81
2022-08-29T04:12:27.458Z,101848.53
2022-08-29T04:17:30.069Z,101851.81
2022-08-29T04:22:32.808Z,101843.88
2022-08-29T04:27:37.671Z,101854.84
2022-08-29T04:32:40.379Z,101867.72
2022-08-29T04:37:44.307Z,101866.16
2022-08-29T04:42:51.336Z,101572.72
2022-08-29T04:47:54.147Z,101856.28
2022-08-29T04:52:57.263Z,101859.19
2022-08-29T04:58:01.613Z,101795.66
2022-08-29T05:03:07.744Z,101869.94
2022-08-29T05:08:10.714Z,101873.75
2022-08-29T05:13:14.776Z,101879.03
2022-08-29T05:18:18.758Z,101886.88
2022-08-29T05:23:21.493Z,101876.81
2022-08-29T05:28:26.579Z,101853.41
2022-08-29T05:33:29.563Z,101874.03
2022-08-29T05:38:32.284Z,101865.75
2022-08-29T05:43:37.052Z,101865.00
2022-08-29T05:48:42.263Z,101889.28
2022-08-29T05:53:45.312Z,101867.34
2022-08-29T05:58:49.527Z,101895.84
2022-08-29T06:03:52.412Z,101856.38
2022-08-29T06:08:56.706Z,101895.03
2022-08-29T06:14:01.908Z,101908.72
2022-08-29T06:19:04.577Z,101900.88
2022-08-29T06:24:07.781Z,101913.63
2022-08-29T06:29:12.585Z,101911.72
2022-08-29T06:34:15.318Z,101818.06
2022-08-29T06:39:18.836Z,101924.94
2022-08-29T06:44:23.779Z,101921.19
2022-08-29T06:49:27.558Z,101882.34
2022-08-29T06:54:31.027Z,101886.97
2022-08-29T06:59:35.387Z,101897.22
2022-08-29T07:04:38.532Z,101931.66
2022-08-29T07:09:41.201Z,101930.16
2022-08-29T07:14:45.694Z,101888.53
2022-08-29T07:19:50.938Z,101927.09
2022-08-29T07:24:53.944Z,101938.28
2022-08-29T07:29:58.120Z,101936.22
2022-08-29T07:35:00.803Z,101936.19
2022-08-29T07:40:04.854Z,101940.59
2022-08-29T07:45:11.402Z,101925.88
2022-08-29T07:50:15.600Z,101853.88
2022-08-29T07:55:18.396Z,101892.81
2022-08-29T08:00:22.483Z,101932.00
2022-08-29T08:05:25.215Z,101942.81
2022-08-29T08:10:30.408Z,101871.91
2022-08-29T08:15:34.504Z,101949.41
2022-08-29T08:20:38.263Z,101945.91
2022-08-29T08:25:41.320Z,101895.38
2022-08-29T08:30:45.703Z,101953.34
2022-08-29T08:35:55.101Z,101918.38
2022-08-29T08:41:05.545Z,101962.59
2022-08-29T08:46:09.677Z,101950.88
2022-08-29T08:51:18.835Z,101878.69
2022-08-29T08:56:29.621Z,101904.59
2022-08-29T09:01:40.815Z,101954.53
2022-08-29T09:06:58.858Z,101957.13
2022-08-29T09:12:11.356Z,101954.31
2022-08-29T09:17:21.175Z,101947.97
2022-08-29T09:22:27.621Z,101950.19
2022-08-29T09:27:37.542Z,101887.19
2022-08-29T09:32:57.846Z,101945.06
2022-08-29T09:38:04.236Z,101943.94
2022-08-29T09:43:07.993Z,101947.41
2022-08-29T09:48:17.343Z,101958.47
2022-08-29T09:53:25.346Z,101844.72
2022-08-29T09:58:36.336Z,101949.13
2022-08-29T10:03:52.972Z,101942.44
2022-08-29T10:08:59.181Z,101940.72
2022-08-29T10:14:04.724Z,101929.91
2022-08-29T10:19:13.736Z,101930.19
2022-08-29T10:24:30.062Z,101922.38
2022-08-29T10:29:51.495Z,101930.63
2022-08-29T10:35:04.579Z,101924.50
2022-08-29T10:40:17.608Z,101904.59
2022-08-29T10:45:36.119Z,101927.41
2022-08-29T10:50:50.510Z,101918.56
2022-08-29T10:56:01.111Z,101909.66
2022-08-29T11:01:13.400Z,101914.19
2022-08-29T11:06:22.390Z,101901.72
2022-08-29T11:11:29.917Z,101857.22
2022-08-29T11:16:38.160Z,101846.03
2022-08-29T11:21:47.923Z,101872.53
2022-08-29T11:27:02.589Z,101877.31
2022-08-29T11:32:09.904Z,101876.81
2022-08-29T11:37:40.631Z,101870.75
2022-08-29T11:42:50.924Z,101790.16
2022-08-29T11:48:02.988Z,101863.66
2022-08-29T11:53:16.715Z,101850.88
2022-08-29T11:58:46.029Z,101856.50
2022-08-29T12:03:51.591Z,101835.94
2022-08-29T12:09:08.039Z,101841.09
2022-08-29T12:14:34.278Z,101851.69
2022-08-29T12:19:48.633Z,101826.09
2022-08-29T12:24:57.304Z,101829.31
2022-08-29T12:30:00.931Z,101819.88
2022-08-29T12:35:49.703Z,101737.94
2022-08-29T12:41:18.329Z,101821.69
2022-08-29T12:46:27.185Z,101835.31
2022-08-29T12:51:37.704Z,101818.38
2022-08-29T12:56:52.247Z,101809.88
2022-08-29T13:01:57.297Z,101813.09
2022-08-29T13:07:02.072Z,101793.66
2022-08-29T13:12:15.298Z,101796.28
2022-08-29T13:17:20.920Z,101765.66
2022-08-29T13:22:23.721Z,101775.22
2022-08-29T13:27:27.853Z,101796.44
2022-08-29T13:32:31.002Z,101760.88
2022-08-29T13:37:36.241Z,101778.19
2022-08-29T13:42:46.441Z,101743.28
2022-08-29T13:47:57.338Z,101782.22
2022-08-29T13:53:00.321Z,101755.13
2022-08-29T13:58:05.453Z,101767.63
2022-08-29T14:03:09.392Z,101754.75
2022-08-29T14:08:13.779Z,101745.47
2022-08-29T14:13:18.374Z,101753.09
2022-08-29T14:18:21.748Z,101708.56
2022-08-29T14:23:24.462Z,101708.25
2022-08-29T14:28:29.062Z,101732.97
2022-08-29T14:33:33.108Z,101728.06
2022-08-29T14:38:37.344Z,101729.06
2022-08-29T14:43:41.482Z,101724.84
2022-08-29T14:48:44.136Z,101708.56
2022-08-29T14:53:54.161Z,101705.31
2022-08-29T14:58:59.702Z,101714.41
2022-08-29T15:04:02.833Z,101544.47
2022-08-29T15:09:06.596Z,101704.75
2022-08-29T15:14:16.629Z,101701.13
2022-08-29T15:24:43.754Z,101682.25
2022-08-29T15:29:47.892Z,101685.28
2022-08-29T15:34:51.962Z,101654.47
2022-08-29T15:39:55.166Z,101644.28
2022-08-29T15:45:02.547Z,101619.69
2022-08-29T15:50:11.026Z,101657.94
2022-08-29T15:55:14.697Z,101644.72
2022-08-29T16:00:29.840Z,101651.13
2022-08-29T16:05:36.483Z,101643.03
2022-08-29T16:10:39.449Z,101630.81
2022-08-29T16:15:44.271Z,101584.56
2022-08-29T16:20:47.580Z,101627.91
2022-08-29T16:25:52.857Z,101641.63
2022-08-29T16:30:56.983Z,101627.00
2022-08-29T16:36:00.666Z,101646.28
2022-08-29T16:41:07.360Z,101665.88
2022-08-29T16:46:14.768Z,101625.94
2022-08-29T16:51:19.140Z,101625.00
2022-08-29T16:56:22.167Z,101646.66
2022-08-29T17:01:27.409Z,101645.28
2022-08-29T17:06:30.617Z,101626.28
2022-08-29T17:11:32.321Z,101622.84
2022-08-29T17:16:36.735Z,101604.56
2022-08-29T17:21:39.899Z,101600.84
2022-08-29T17:26:45.217Z,101640.44
2022-08-29T17:31:49.318Z,101642.94
2022-08-29T17:36:54.704Z,101631.84
2022-08-29T17:41:57.420Z,101636.03
2022-08-29T17:47:02.597Z,101645.34
2022-08-29T17:52:06.799Z,101609.53
2022-08-29T17:57:09.459Z,101639.13
2022-08-29T18:02:13.611Z,101653.63
2022-08-29T18:07:17.184Z,101657.94
2022-08-29T18:12:20.493Z,101648.94
2022-08-29T18:17:25.694Z,101640.19
2022-08-29T18:22:29.392Z,101653.66
2022-08-29T18:27:33.746Z,101604.97
2022-08-29T18:32:38.449Z,101605.28
2022-08-29T18:37:41.419Z,101644.88
2022-08-29T18:42:44.259Z,101668.72
2022-08-29T18:47:52.536Z,101673.09
2022-08-29T18:52:55.648Z,101656.94
2022-08-29T18:57:58.517Z,101515.34
2022-08-29T19:03:03.701Z,101556.38
2022-08-29T19:08:07.100Z,101646.88
2022-08-29T19:13:09.942Z,101610.91
2022-08-29T19:18:15.739Z,101659.78
2022-08-29T19:23:19.704Z,101626.75
2022-08-29T19:28:22.689Z,101672.16
2022-08-29T19:33:27.157Z,101660.59
2022-08-29T19:38:30.233Z,101619.47
2022-08-29T19:43:34.756Z,101650.81
2022-08-29T19:48:41.850Z,101657.53
2022-08-29T19:53:45.333Z,101675.63
2022-08-29T19:58:49.471Z,101658.78
2022-08-29T20:03:54.173Z,101673.75
2022-08-29T20:08:58.685Z,101678.06
2022-08-29T20:14:02.062Z,101679.75
2022-08-29T20:19:06.608Z,101674.66
2022-08-29T20:24:10.274Z,101658.13
2022-08-29T20:29:20.568Z,101679.94
2022-08-29T20:34:28.241Z,101658.84
2022-08-29T20:39:31.394Z,101668.19
2022-08-29T20:44:37.736Z,101650.06
2022-08-29T20:49:43.888Z,101686.59
2022-08-29T20:54:47.145Z,101640.59
2022-08-29T20:59:49.785Z,101682.31
2022-08-29T21:05:11.271Z,101592.25
2022-08-29T21:10:14.312Z,101685.06
2022-08-29T21:15:17.211Z,101697.50
2022-08-29T21:20:21.216Z,101688.75
2022-08-29T21:25:23.849Z,101625.59
2022-08-29T21:30:26.764Z,101687.44
2022-08-29T21:35:30.967Z,101651.34
2022-08-29T21:40:33.926Z,101603.97
2022-08-29T21:45:36.640Z,101682.47
2022-08-29T21:50:40.850Z,101685.03
2022-08-29T21:55:43.590Z,101677.22
2022-08-29T22:00:46.308Z,101633.25
2022-08-29T22:05:52.663Z,101690.72
2022-08-29T22:10:58.393Z,101643.97
2022-08-29T22:16:18.821Z,101607.78
2022-08-29T22:21:33.951Z,101714.03
2022-08-29T22:26:38.556Z,101712.63
2022-08-29T22:31:42.423Z,101718.00
2022-08-29T22:36:46.877Z,101721.09
2022-08-29T22:41:49.511Z,101715.16
2022-08-29T22:46:52.810Z,101707.09
2022-08-29T22:51:56.845Z,101726.63
2022-08-29T22:56:59.490Z,101689.97
2022-08-29T23:02:02.330Z,101697.19
2022-08-29T23:07:07.647Z,101734.53
2022-08-29T23:12:12.586Z,101731.00
2022-08-29T23:17:16.908Z,101735.34
2022-08-29T23:22:20.887Z,101727.16
2022-08-29T23:27:23.571Z,101737.09
2022-08-29T23:32:28.921Z,101719.38
2022-08-29T23:37:35.614Z,101733.97
2022-08-29T23:42:38.286Z,101714.41
2022-08-29T23:47:41.468Z,101704.38
2022-08-29T23:52:46.678Z,101722.94
2022-08-29T23:57:49.699Z,101696.75
